sensor_id;sensor_type;location;lat;lon;timestamp;temperature;humidity
19588;DHT22;9940;47.252;8.696;2023-05-17T00:00:01;11.50;99.90
19588;DHT22;9940;47.252;8.696;2023-05-17T00:02:31;11.50;99.90
19588;DHT22;9940;47.252;8.696;2023-05-17T00:04:56;11.50;99.90
19588;DHT22;9940;47.252;8.696;2023-05-17T00:07:27;11.50;99.90
19588;DHT22;9940;47.252;8.696;2023-05-17T00:09:52;11.50;99.90
19588;DHT22;9940;47.252;8.696;2023-05-17T00:12:20;11.40;99.90
19588;DHT22;9940;47.252;8.696;2023-05-17T00:14:49;11.50;99.90
19588;DHT22;9940;47.252;8.696;2023-05-17T00:17:14;11.40;99.90
19588;DHT22;9940;47.252;8.696;2023-05-17T00:19:43;11.40;99.90
19588;DHT22;9940;47.252;8.696;2023-05-17T00:22:11;11.40;99.90
19588;DHT22;9940;47.252;8.696;2023-05-17T00:24:37;11.40;99.90
19588;DHT22;9940;47.252;8.696;2023-05-17T00:27:02;11.50;99.90
19588;DHT22;9940;47.252;8.696;2023-05-17T00:29:31;11.40;99.90
19588;DHT22;9940;47.252;8.696;2023-05-17T00:31:57;11.40;99.90
19588;DHT22;9940;47.252;8.696;2023-05-17T00:34:29;11.40;99.90
19588;DHT22;9940;47.252;8.696;2023-05-17T00:36:55;11.40;99.90
19588;DHT22;9940;47.252;8.696;2023-05-17T00:39:20;11.40;99.90
19588;DHT22;9940;47.252;8.696;2023-05-17T00:41:46;11.40;99.90
19588;DHT22;9940;47.252;8.696;2023-05-17T00:44:11;11.40;99.90
19588;DHT22;9940;47.252;8.696;2023-05-17T00:46:37;11.40;99.90
19588;DHT22;9940;47.252;8.696;2023-05-17T00:49:05;11.40;99.90
19588;DHT22;9940;47.252;8.696;2023-05-17T00:51:32;11.40;99.90
19588;DHT22;9940;47.252;8.696;2023-05-17T00:54:02;11.40;99.90
19588;DHT22;9940;47.252;8.696;2023-05-17T00:56:28;11.40;99.90
19588;DHT22;9940;47.252;8.696;2023-05-17T00:58:54;11.40;99.90
19588;DHT22;9940;47.252;8.696;2023-05-17T01:01:20;11.40;99.90
19588;DHT22;9940;47.252;8.696;2023-05-17T01:03:48;11.40;99.90
19588;DHT22;9940;47.252;8.696;2023-05-17T01:06:14;11.40;99.90
19588;DHT22;9940;47.252;8.696;2023-05-17T01:08:40;11.40;99.90
19588;DHT22;9940;47.252;8.696;2023-05-17T01:11:17;11.40;99.90
19588;DHT22;9940;47.252;8.696;2023-05-17T01:16:39;11.40;99.90
19588;DHT22;9940;47.252;8.696;2023-05-17T01:27:32;11.30;99.90
19588;DHT22;9940;47.252;8.696;2023-05-17T01:30:00;11.30;99.90
19588;DHT22;9940;47.252;8.696;2023-05-17T01:32:26;11.30;99.90
19588;DHT22;9940;47.252;8.696;2023-05-17T01:34:53;11.30;99.90
19588;DHT22;9940;47.252;8.696;2023-05-17T01:37:18;11.30;99.90
19588;DHT22;9940;47.252;8.696;2023-05-17T01:39:47;11.30;99.90
19588;DHT22;9940;47.252;8.696;2023-05-17T01:42:21;11.30;99.90
19588;DHT22;9940;47.252;8.696;2023-05-17T01:45:11;11.30;99.90
19588;DHT22;9940;47.252;8.696;2023-05-17T01:48:11;11.30;99.90
19588;DHT22;9940;47.252;8.696;2023-05-17T01:50:40;11.30;99.90
19588;DHT22;9940;47.252;8.696;2023-05-17T01:53:12;11.30;99.90
19588;DHT22;9940;47.252;8.696;2023-05-17T01:55:53;11.30;99.90
19588;DHT22;9940;47.252;8.696;2023-05-17T01:58:24;11.30;99.90
19588;DHT22;9940;47.252;8.696;2023-05-17T02:00:51;11.30;99.90
19588;DHT22;9940;47.252;8.696;2023-05-17T02:03:21;11.30;99.90
19588;DHT22;9940;47.252;8.696;2023-05-17T02:05:47;11.20;99.90
19588;DHT22;9940;47.252;8.696;2023-05-17T02:08:13;11.30;99.90
19588;DHT22;9940;47.252;8.696;2023-05-17T02:10:41;11.30;99.90
19588;DHT22;9940;47.252;8.696;2023-05-17T02:13:06;11.20;99.90
19588;DHT22;9940;47.252;8.696;2023-05-17T02:15:32;11.20;99.90
19588;DHT22;9940;47.252;8.696;2023-05-17T02:18:00;11.30;99.90
19588;DHT22;9940;47.252;8.696;2023-05-17T02:20:25;11.20;99.90
19588;DHT22;9940;47.252;8.696;2023-05-17T02:22:51;11.20;99.90
19588;DHT22;9940;47.252;8.696;2023-05-17T02:25:17;11.20;99.90
19588;DHT22;9940;47.252;8.696;2023-05-17T02:27:45;11.20;99.90
19588;DHT22;9940;47.252;8.696;2023-05-17T02:30:11;11.20;99.90
19588;DHT22;9940;47.252;8.696;2023-05-17T02:32:40;11.20;99.90
19588;DHT22;9940;47.252;8.696;2023-05-17T02:35:06;11.20;99.90
19588;DHT22;9940;47.252;8.696;2023-05-17T02:37:32;11.20;99.90
19588;DHT22;9940;47.252;8.696;2023-05-17T02:40:00;11.20;99.90
19588;DHT22;9940;47.252;8.696;2023-05-17T02:42:28;11.20;99.90
19588;DHT22;9940;47.252;8.696;2023-05-17T02:44:54;11.20;99.90
19588;DHT22;9940;47.252;8.696;2023-05-17T02:47:22;11.20;99.90
19588;DHT22;9940;47.252;8.696;2023-05-17T02:49:52;11.10;99.90
19588;DHT22;9940;47.252;8.696;2023-05-17T02:52:18;11.10;99.90
19588;DHT22;9940;47.252;8.696;2023-05-17T02:54:48;11.10;99.90
19588;DHT22;9940;47.252;8.696;2023-05-17T02:57:13;11.10;99.90
19588;DHT22;9940;47.252;8.696;2023-05-17T02:59:39;11.10;99.90
19588;DHT22;9940;47.252;8.696;2023-05-17T03:02:05;11.10;99.90
19588;DHT22;9940;47.252;8.696;2023-05-17T03:04:32;11.10;99.90
19588;DHT22;9940;47.252;8.696;2023-05-17T03:07:00;11.10;99.90
19588;DHT22;9940;47.252;8.696;2023-05-17T03:09:26;11.10;99.90
19588;DHT22;9940;47.252;8.696;2023-05-17T03:11:54;11.10;99.90
19588;DHT22;9940;47.252;8.696;2023-05-17T03:14:22;11.10;99.90
19588;DHT22;9940;47.252;8.696;2023-05-17T03:16:47;11.10;99.90
19588;DHT22;9940;47.252;8.696;2023-05-17T03:19:13;11.10;99.90
19588;DHT22;9940;47.252;8.696;2023-05-17T03:21:41;11.10;99.90
19588;DHT22;9940;47.252;8.696;2023-05-17T03:24:09;11.10;99.90
19588;DHT22;9940;47.252;8.696;2023-05-17T03:26:34;11.10;99.90
19588;DHT22;9940;47.252;8.696;2023-05-17T03:29:00;11.10;99.90
19588;DHT22;9940;47.252;8.696;2023-05-17T03:31:26;11.10;99.90
19588;DHT22;9940;47.252;8.696;2023-05-17T03:33:51;11.10;99.90
19588;DHT22;9940;47.252;8.696;2023-05-17T03:36:17;11.10;99.90
19588;DHT22;9940;47.252;8.696;2023-05-17T03:38:45;11.10;99.90
19588;DHT22;9940;47.252;8.696;2023-05-17T03:41:11;11.10;99.90
19588;DHT22;9940;47.252;8.696;2023-05-17T03:43:38;11.10;99.90
19588;DHT22;9940;47.252;8.696;2023-05-17T03:46:06;11.10;99.90
19588;DHT22;9940;47.252;8.696;2023-05-17T03:48:34;11.00;99.90
19588;DHT22;9940;47.252;8.696;2023-05-17T03:51:00;11.10;99.90
19588;DHT22;9940;47.252;8.696;2023-05-17T03:53:26;11.00;99.90
19588;DHT22;9940;47.252;8.696;2023-05-17T03:55:51;11.00;99.90
19588;DHT22;9940;47.252;8.696;2023-05-17T03:58:19;11.00;99.90
19588;DHT22;9940;47.252;8.696;2023-05-17T04:00:47;11.00;99.90
19588;DHT22;9940;47.252;8.696;2023-05-17T04:03:13;11.00;99.90
19588;DHT22;9940;47.252;8.696;2023-05-17T04:05:39;11.00;99.90
19588;DHT22;9940;47.252;8.696;2023-05-17T04:08:07;11.00;99.90
19588;DHT22;9940;47.252;8.696;2023-05-17T04:10:33;11.00;99.90
19588;DHT22;9940;47.252;8.696;2023-05-17T04:15:24;11.00;99.90
19588;DHT22;9940;47.252;8.696;2023-05-17T04:17:50;10.90;99.90
19588;DHT22;9940;47.252;8.696;2023-05-17T04:20:16;10.90;99.90
19588;DHT22;9940;47.252;8.696;2023-05-17T04:22:43;10.90;99.90
19588;DHT22;9940;47.252;8.696;2023-05-17T04:25:11;10.90;99.90
19588;DHT22;9940;47.252;8.696;2023-05-17T04:27:41;10.90;99.90
19588;DHT22;9940;47.252;8.696;2023-05-17T04:30:07;10.90;99.90
19588;DHT22;9940;47.252;8.696;2023-05-17T04:32:33;10.90;99.90
19588;DHT22;9940;47.252;8.696;2023-05-17T04:34:59;10.90;99.90
19588;DHT22;9940;47.252;8.696;2023-05-17T04:37:25;10.90;99.90
19588;DHT22;9940;47.252;8.696;2023-05-17T04:39:53;10.90;99.90
19588;DHT22;9940;47.252;8.696;2023-05-17T04:42:18;10.90;99.90
19588;DHT22;9940;47.252;8.696;2023-05-17T04:44:44;10.90;99.90
19588;DHT22;9940;47.252;8.696;2023-05-17T04:47:12;10.90;99.90
19588;DHT22;9940;47.252;8.696;2023-05-17T04:49:37;10.90;99.90
19588;DHT22;9940;47.252;8.696;2023-05-17T04:52:06;10.90;99.90
19588;DHT22;9940;47.252;8.696;2023-05-17T04:54:31;10.90;99.90
19588;DHT22;9940;47.252;8.696;2023-05-17T04:56:57;10.90;99.90
19588;DHT22;9940;47.252;8.696;2023-05-17T04:59:22;10.90;99.90
19588;DHT22;9940;47.252;8.696;2023-05-17T05:01:48;10.90;99.90
19588;DHT22;9940;47.252;8.696;2023-05-17T05:04:18;10.90;99.90
19588;DHT22;9940;47.252;8.696;2023-05-17T05:06:44;11.00;99.90
19588;DHT22;9940;47.252;8.696;2023-05-17T05:09:12;11.00;99.90
19588;DHT22;9940;47.252;8.696;2023-05-17T05:11:39;11.00;99.70
19588;DHT22;9940;47.252;8.696;2023-05-17T05:14:07;11.00;99.50
19588;DHT22;9940;47.252;8.696;2023-05-17T05:16:35;11.00;99.30
19588;DHT22;9940;47.252;8.696;2023-05-17T05:19:01;11.00;99.20
19588;DHT22;9940;47.252;8.696;2023-05-17T05:21:29;11.00;99.10
19588;DHT22;9940;47.252;8.696;2023-05-17T05:23:59;11.00;99.00
19588;DHT22;9940;47.252;8.696;2023-05-17T05:26:30;11.10;98.90
19588;DHT22;9940;47.252;8.696;2023-05-17T05:28:58;11.10;98.70
19588;DHT22;9940;47.252;8.696;2023-05-17T05:31:24;11.10;98.50
19588;DHT22;9940;47.252;8.696;2023-05-17T05:33:49;11.10;98.30
19588;DHT22;9940;47.252;8.696;2023-05-17T05:36:20;11.10;98.20
19588;DHT22;9940;47.252;8.696;2023-05-17T05:38:50;11.10;98.10
19588;DHT22;9940;47.252;8.696;2023-05-17T05:41:18;11.10;98.00
19588;DHT22;9940;47.252;8.696;2023-05-17T05:43:44;11.10;97.90
19588;DHT22;9940;47.252;8.696;2023-05-17T05:46:12;11.00;97.70
19588;DHT22;9940;47.252;8.696;2023-05-17T05:48:40;11.00;97.60
19588;DHT22;9940;47.252;8.696;2023-05-17T05:51:06;11.00;97.50
19588;DHT22;9940;47.252;8.696;2023-05-17T05:53:32;11.00;97.40
19588;DHT22;9940;47.252;8.696;2023-05-17T05:55:58;11.00;97.20
19588;DHT22;9940;47.252;8.696;2023-05-17T05:58:26;11.00;97.30
19588;DHT22;9940;47.252;8.696;2023-05-17T06:00:52;11.00;96.70
19588;DHT22;9940;47.252;8.696;2023-05-17T06:03:17;11.00;96.50
19588;DHT22;9940;47.252;8.696;2023-05-17T06:05:43;11.00;96.10
19588;DHT22;9940;47.252;8.696;2023-05-17T06:08:11;11.00;96.00
19588;DHT22;9940;47.252;8.696;2023-05-17T06:10:39;11.10;95.90
19588;DHT22;9940;47.252;8.696;2023-05-17T06:13:05;11.10;95.50
19588;DHT22;9940;47.252;8.696;2023-05-17T06:15:33;11.10;95.20
19588;DHT22;9940;47.252;8.696;2023-05-17T06:18:01;11.10;94.90
19588;DHT22;9940;47.252;8.696;2023-05-17T06:20:31;11.10;94.70
19588;DHT22;9940;47.252;8.696;2023-05-17T06:22:59;11.10;94.50
19588;DHT22;9940;47.252;8.696;2023-05-17T06:25:24;11.10;94.30
19588;DHT22;9940;47.252;8.696;2023-05-17T06:27:50;11.10;94.10
19588;DHT22;9940;47.252;8.696;2023-05-17T06:30:15;11.20;93.80
19588;DHT22;9940;47.252;8.696;2023-05-17T06:32:41;11.20;93.60
19588;DHT22;9940;47.252;8.696;2023-05-17T06:35:12;11.30;93.40
19588;DHT22;9940;47.252;8.696;2023-05-17T06:37:38;11.30;93.10
19588;DHT22;9940;47.252;8.696;2023-05-17T06:40:06;11.30;92.90
19588;DHT22;9940;47.252;8.696;2023-05-17T06:42:32;11.40;92.70
19588;DHT22;9940;47.252;8.696;2023-05-17T06:44:58;11.40;92.60
19588;DHT22;9940;47.252;8.696;2023-05-17T06:47:26;11.40;92.50
19588;DHT22;9940;47.252;8.696;2023-05-17T06:49:52;11.50;92.30
19588;DHT22;9940;47.252;8.696;2023-05-17T06:52:18;11.50;92.00
19588;DHT22;9940;47.252;8.696;2023-05-17T06:54:46;11.60;91.80
19588;DHT22;9940;47.252;8.696;2023-05-17T06:57:14;11.60;91.50
19588;DHT22;9940;47.252;8.696;2023-05-17T06:59:41;11.70;91.40
19588;DHT22;9940;47.252;8.696;2023-05-17T07:02:07;11.80;91.20
19588;DHT22;9940;47.252;8.696;2023-05-17T07:04:32;11.90;91.00
19588;DHT22;9940;47.252;8.696;2023-05-17T07:07:01;12.00;90.70
19588;DHT22;9940;47.252;8.696;2023-05-17T07:09:26;12.10;90.40
19588;DHT22;9940;47.252;8.696;2023-05-17T07:11:54;12.20;90.10
19588;DHT22;9940;47.252;8.696;2023-05-17T07:14:24;12.20;89.80
19588;DHT22;9940;47.252;8.696;2023-05-17T07:16:52;12.40;89.30
19588;DHT22;9940;47.252;8.696;2023-05-17T07:19:18;12.40;88.60
19588;DHT22;9940;47.252;8.696;2023-05-17T07:21:44;12.50;88.10
19588;DHT22;9940;47.252;8.696;2023-05-17T07:24:09;12.60;87.60
19588;DHT22;9940;47.252;8.696;2023-05-17T07:26:35;12.60;87.20
19588;DHT22;9940;47.252;8.696;2023-05-17T07:29:01;12.70;86.80
19588;DHT22;9940;47.252;8.696;2023-05-17T07:31:28;12.70;86.50
19588;DHT22;9940;47.252;8.696;2023-05-17T07:33:54;12.80;86.00
19588;DHT22;9940;47.252;8.696;2023-05-17T07:36:20;12.80;85.70
19588;DHT22;9940;47.252;8.696;2023-05-17T07:38:45;12.80;85.50
19588;DHT22;9940;47.252;8.696;2023-05-17T07:41:13;12.80;85.40
19588;DHT22;9940;47.252;8.696;2023-05-17T07:43:41;12.80;85.40
19588;DHT22;9940;47.252;8.696;2023-05-17T07:46:09;12.80;85.10
19588;DHT22;9940;47.252;8.696;2023-05-17T07:48:34;12.80;85.10
19588;DHT22;9940;47.252;8.696;2023-05-17T07:51:00;12.80;84.90
19588;DHT22;9940;47.252;8.696;2023-05-17T07:53:28;12.80;84.80
19588;DHT22;9940;47.252;8.696;2023-05-17T07:55:54;12.80;84.90
19588;DHT22;9940;47.252;8.696;2023-05-17T07:58:19;12.80;84.80
19588;DHT22;9940;47.252;8.696;2023-05-17T08:00:45;12.80;84.50
19588;DHT22;9940;47.252;8.696;2023-05-17T08:03:13;12.90;85.10
19588;DHT22;9940;47.252;8.696;2023-05-17T08:05:39;12.90;84.10
19588;DHT22;9940;47.252;8.696;2023-05-17T08:08:05;13.00;83.90
19588;DHT22;9940;47.252;8.696;2023-05-17T08:10:30;13.00;83.80
19588;DHT22;9940;47.252;8.696;2023-05-17T08:12:59;13.00;83.80
19588;DHT22;9940;47.252;8.696;2023-05-17T08:15:24;13.00;83.90
19588;DHT22;9940;47.252;8.696;2023-05-17T08:17:50;13.00;83.70
19588;DHT22;9940;47.252;8.696;2023-05-17T08:20:16;13.00;83.50
19588;DHT22;9940;47.252;8.696;2023-05-17T08:22:42;13.00;83.20
19588;DHT22;9940;47.252;8.696;2023-05-17T08:25:10;13.00;82.90
19588;DHT22;9940;47.252;8.696;2023-05-17T08:27:36;13.00;82.70
19588;DHT22;9940;47.252;8.696;2023-05-17T08:30:04;13.10;82.50
19588;DHT22;9940;47.252;8.696;2023-05-17T08:32:33;13.10;82.80
19588;DHT22;9940;47.252;8.696;2023-05-17T08:34:58;13.10;81.70
19588;DHT22;9940;47.252;8.696;2023-05-17T08:37:24;13.20;81.40
19588;DHT22;9940;47.252;8.696;2023-05-17T08:39:49;13.30;81.10
19588;DHT22;9940;47.252;8.696;2023-05-17T08:42:21;13.40;80.70
19588;DHT22;9940;47.252;8.696;2023-05-17T08:44:51;13.50;80.00
19588;DHT22;9940;47.252;8.696;2023-05-17T08:47:26;13.60;79.50
19588;DHT22;9940;47.252;8.696;2023-05-17T08:49:58;13.70;79.30
19588;DHT22;9940;47.252;8.696;2023-05-17T08:52:28;13.70;79.10
19588;DHT22;9940;47.252;8.696;2023-05-17T08:54:57;13.70;79.60
19588;DHT22;9940;47.252;8.696;2023-05-17T08:57:29;13.70;78.60
19588;DHT22;9940;47.252;8.696;2023-05-17T08:59:57;13.80;78.30
19588;DHT22;9940;47.252;8.696;2023-05-17T09:02:23;14.00;77.90
19588;DHT22;9940;47.252;8.696;2023-05-17T09:04:49;14.10;77.00
19588;DHT22;9940;47.252;8.696;2023-05-17T09:09:52;14.40;74.40
19588;DHT22;9940;47.252;8.696;2023-05-17T09:12:19;14.50;74.50
19588;DHT22;9940;47.252;8.696;2023-05-17T09:17:14;14.60;72.60
19588;DHT22;9940;47.252;8.696;2023-05-17T09:19:44;14.70;72.90
19588;DHT22;9940;47.252;8.696;2023-05-17T09:22:17;14.60;72.50
19588;DHT22;9940;47.252;8.696;2023-05-17T09:24:43;14.70;72.10
19588;DHT22;9940;47.252;8.696;2023-05-17T09:27:17;14.70;72.00
19588;DHT22;9940;47.252;8.696;2023-05-17T09:29:43;14.80;71.80
19588;DHT22;9940;47.252;8.696;2023-05-17T09:32:13;14.80;71.60
19588;DHT22;9940;47.252;8.696;2023-05-17T09:34:43;14.90;71.30
19588;DHT22;9940;47.252;8.696;2023-05-17T09:37:18;15.00;70.80
19588;DHT22;9940;47.252;8.696;2023-05-17T09:42:16;15.20;69.50
19588;DHT22;9940;47.252;8.696;2023-05-17T09:44:51;15.30;69.60
19588;DHT22;9940;47.252;8.696;2023-05-17T09:47:28;15.40;69.00
19588;DHT22;9940;47.252;8.696;2023-05-17T09:49:58;15.50;68.20
19588;DHT22;9940;47.252;8.696;2023-05-17T09:52:28;15.50;67.90
19588;DHT22;9940;47.252;8.696;2023-05-17T09:54:58;15.50;67.60
19588;DHT22;9940;47.252;8.696;2023-05-17T09:57:35;15.50;67.30
19588;DHT22;9940;47.252;8.696;2023-05-17T10:00:01;15.50;67.20
19588;DHT22;9940;47.252;8.696;2023-05-17T10:02:30;15.60;67.30
19588;DHT22;9940;47.252;8.696;2023-05-17T10:04:57;15.70;66.90
19588;DHT22;9940;47.252;8.696;2023-05-17T10:07:24;15.60;66.60
19588;DHT22;9940;47.252;8.696;2023-05-17T10:09:52;15.60;66.50
19588;DHT22;9940;47.252;8.696;2023-05-17T10:12:21;15.60;66.30
19588;DHT22;9940;47.252;8.696;2023-05-17T10:14:47;15.50;65.80
19588;DHT22;9940;47.252;8.696;2023-05-17T10:17:15;15.50;65.60
19588;DHT22;9940;47.252;8.696;2023-05-17T10:19:42;15.50;65.20
19588;DHT22;9940;47.252;8.696;2023-05-17T10:22:14;15.60;65.00
19588;DHT22;9940;47.252;8.696;2023-05-17T10:24:43;15.50;64.60
19588;DHT22;9940;47.252;8.696;2023-05-17T10:27:14;15.50;64.40
19588;DHT22;9940;47.252;8.696;2023-05-17T10:29:43;15.50;64.10
19588;DHT22;9940;47.252;8.696;2023-05-17T10:32:09;15.50;63.90
19588;DHT22;9940;47.252;8.696;2023-05-17T10:34:44;15.50;63.80
19588;DHT22;9940;47.252;8.696;2023-05-17T10:37:11;15.50;63.60
19588;DHT22;9940;47.252;8.696;2023-05-17T10:39:38;15.50;63.60
19588;DHT22;9940;47.252;8.696;2023-05-17T10:42:12;15.40;63.50
19588;DHT22;9940;47.252;8.696;2023-05-17T10:44:38;15.30;63.40
19588;DHT22;9940;47.252;8.696;2023-05-17T10:47:04;15.30;63.70
19588;DHT22;9940;47.252;8.696;2023-05-17T10:49:32;15.20;63.70
19588;DHT22;9940;47.252;8.696;2023-05-17T10:52:10;15.10;63.90
19588;DHT22;9940;47.252;8.696;2023-05-17T10:54:39;15.00;64.10
19588;DHT22;9940;47.252;8.696;2023-05-17T10:57:05;14.90;64.40
19588;DHT22;9940;47.252;8.696;2023-05-17T10:59:32;14.70;64.70
19588;DHT22;9940;47.252;8.696;2023-05-17T11:02:06;14.70;65.10
19588;DHT22;9940;47.252;8.696;2023-05-17T11:04:42;14.60;65.20
19588;DHT22;9940;47.252;8.696;2023-05-17T11:10:09;14.50;65.60
19588;DHT22;9940;47.252;8.696;2023-05-17T11:12:46;14.50;65.80
19588;DHT22;9940;47.252;8.696;2023-05-17T11:15:23;14.50;65.80
19588;DHT22;9940;47.252;8.696;2023-05-17T11:17:51;14.50;65.90
19588;DHT22;9940;47.252;8.696;2023-05-17T11:23:02;14.40;66.00
19588;DHT22;9940;47.252;8.696;2023-05-17T11:25:31;14.40;66.20
19588;DHT22;9940;47.252;8.696;2023-05-17T11:28:00;14.30;67.10
19588;DHT22;9940;47.252;8.696;2023-05-17T11:30:31;14.20;67.40
19588;DHT22;9940;47.252;8.696;2023-05-17T11:33:06;14.20;66.90
19588;DHT22;9940;47.252;8.696;2023-05-17T11:35:37;14.10;67.10
19588;DHT22;9940;47.252;8.696;2023-05-17T11:38:22;14.00;67.20
19588;DHT22;9940;47.252;8.696;2023-05-17T11:40:53;13.90;67.30
19588;DHT22;9940;47.252;8.696;2023-05-17T11:43:20;13.90;67.40
19588;DHT22;9940;47.252;8.696;2023-05-17T11:45:48;13.80;67.60
19588;DHT22;9940;47.252;8.696;2023-05-17T11:48:17;13.80;67.70
19588;DHT22;9940;47.252;8.696;2023-05-17T11:50:44;13.70;67.80
19588;DHT22;9940;47.252;8.696;2023-05-17T11:53:14;13.70;67.90
19588;DHT22;9940;47.252;8.696;2023-05-17T11:55:44;13.80;68.00
19588;DHT22;9940;47.252;8.696;2023-05-17T11:58:14;13.90;68.10
19588;DHT22;9940;47.252;8.696;2023-05-17T12:00:40;13.90;68.00
19588;DHT22;9940;47.252;8.696;2023-05-17T12:03:22;13.90;67.80
19588;DHT22;9940;47.252;8.696;2023-05-17T12:06:00;13.90;67.80
19588;DHT22;9940;47.252;8.696;2023-05-17T12:08:26;13.80;67.70
19588;DHT22;9940;47.252;8.696;2023-05-17T12:10:52;13.80;67.80
19588;DHT22;9940;47.252;8.696;2023-05-17T12:13:20;13.80;67.80
19588;DHT22;9940;47.252;8.696;2023-05-17T12:15:59;13.90;68.00
19588;DHT22;9940;47.252;8.696;2023-05-17T12:19:11;13.90;68.10
19588;DHT22;9940;47.252;8.696;2023-05-17T12:21:28;14.00;68.00
19588;DHT22;9940;47.252;8.696;2023-05-17T12:23:56;14.20;67.90
19588;DHT22;9940;47.252;8.696;2023-05-17T12:26:22;14.20;67.70
19588;DHT22;9940;47.252;8.696;2023-05-17T12:28:58;14.20;67.60
19588;DHT22;9940;47.252;8.696;2023-05-17T12:31:33;14.30;67.50
19588;DHT22;9940;47.252;8.696;2023-05-17T12:34:00;14.30;67.30
19588;DHT22;9940;47.252;8.696;2023-05-17T12:36:28;14.40;67.20
19588;DHT22;9940;47.252;8.696;2023-05-17T12:38:55;14.40;67.10
19588;DHT22;9940;47.252;8.696;2023-05-17T12:41:21;14.50;67.00
19588;DHT22;9940;47.252;8.696;2023-05-17T12:43:48;14.50;66.60
19588;DHT22;9940;47.252;8.696;2023-05-17T12:46:20;14.60;66.40
19588;DHT22;9940;47.252;8.696;2023-05-17T12:48:52;14.60;66.20
19588;DHT22;9940;47.252;8.696;2023-05-17T12:51:22;14.60;65.90
19588;DHT22;9940;47.252;8.696;2023-05-17T12:56:18;14.80;65.90
19588;DHT22;9940;47.252;8.696;2023-05-17T12:59:03;14.90;65.60
19588;DHT22;9940;47.252;8.696;2023-05-17T13:01:36;14.90;65.30
19588;DHT22;9940;47.252;8.696;2023-05-17T13:04:02;14.90;65.20
19588;DHT22;9940;47.252;8.696;2023-05-17T13:06:28;14.90;65.10
19588;DHT22;9940;47.252;8.696;2023-05-17T13:09:00;14.90;65.10
19588;DHT22;9940;47.252;8.696;2023-05-17T13:11:26;15.00;65.10
19588;DHT22;9940;47.252;8.696;2023-05-17T13:13:57;15.20;65.00
19588;DHT22;9940;47.252;8.696;2023-05-17T13:16:31;15.60;64.50
19588;DHT22;9940;47.252;8.696;2023-05-17T13:18:59;16.10;63.60
19588;DHT22;9940;47.252;8.696;2023-05-17T13:21:27;16.70;62.70
19588;DHT22;9940;47.252;8.696;2023-05-17T13:23:52;17.30;61.20
19588;DHT22;9940;47.252;8.696;2023-05-17T13:26:21;18.10;59.70
19588;DHT22;9940;47.252;8.696;2023-05-17T13:28:48;18.70;58.60
19588;DHT22;9940;47.252;8.696;2023-05-17T13:31:16;19.00;57.80
19588;DHT22;9940;47.252;8.696;2023-05-17T13:33:42;18.90;57.50
19588;DHT22;9940;47.252;8.696;2023-05-17T13:36:09;18.80;57.40
19588;DHT22;9940;47.252;8.696;2023-05-17T13:41:01;19.10;56.60
19588;DHT22;9940;47.252;8.696;2023-05-17T13:43:26;19.80;56.30
19588;DHT22;9940;47.252;8.696;2023-05-17T13:45:52;20.30;55.20
19588;DHT22;9940;47.252;8.696;2023-05-17T13:48:25;20.30;54.80
19588;DHT22;9940;47.252;8.696;2023-05-17T13:50:51;20.00;54.80
19588;DHT22;9940;47.252;8.696;2023-05-17T13:53:17;19.80;54.90
19588;DHT22;9940;47.252;8.696;2023-05-17T13:55:43;19.60;54.90
19588;DHT22;9940;47.252;8.696;2023-05-17T13:58:12;19.20;55.00
19588;DHT22;9940;47.252;8.696;2023-05-17T14:00:37;18.80;55.20
19588;DHT22;9940;47.252;8.696;2023-05-17T14:03:07;18.50;55.60
19588;DHT22;9940;47.252;8.696;2023-05-17T14:05:32;18.20;55.90
19588;DHT22;9940;47.252;8.696;2023-05-17T14:08:03;17.90;56.20
19588;DHT22;9940;47.252;8.696;2023-05-17T14:10:31;17.60;56.40
19588;DHT22;9940;47.252;8.696;2023-05-17T14:12:59;17.40;56.60
19588;DHT22;9940;47.252;8.696;2023-05-17T14:15:25;17.20;57.00
19588;DHT22;9940;47.252;8.696;2023-05-17T14:17:54;17.00;57.40
19588;DHT22;9940;47.252;8.696;2023-05-17T14:20:19;16.80;58.10
19588;DHT22;9940;47.252;8.696;2023-05-17T14:22:45;16.70;57.80
19588;DHT22;9940;47.252;8.696;2023-05-17T14:25:11;16.50;57.90
19588;DHT22;9940;47.252;8.696;2023-05-17T14:27:37;16.40;57.90
19588;DHT22;9940;47.252;8.696;2023-05-17T14:30:03;16.30;58.10
19588;DHT22;9940;47.252;8.696;2023-05-17T14:32:29;16.20;58.10
19588;DHT22;9940;47.252;8.696;2023-05-17T14:34:57;16.20;58.10
19588;DHT22;9940;47.252;8.696;2023-05-17T14:37:25;16.20;58.20
19588;DHT22;9940;47.252;8.696;2023-05-17T14:39:51;16.20;58.20
19588;DHT22;9940;47.252;8.696;2023-05-17T14:42:16;16.20;58.10
19588;DHT22;9940;47.252;8.696;2023-05-17T14:44:47;16.30;58.00
19588;DHT22;9940;47.252;8.696;2023-05-17T14:47:12;16.30;57.90
19588;DHT22;9940;47.252;8.696;2023-05-17T14:49:38;16.30;58.00
19588;DHT22;9940;47.252;8.696;2023-05-17T14:52:06;16.20;58.00
19588;DHT22;9940;47.252;8.696;2023-05-17T14:54:32;16.20;58.00
19588;DHT22;9940;47.252;8.696;2023-05-17T14:57:02;16.20;57.80
19588;DHT22;9940;47.252;8.696;2023-05-17T14:59:30;16.20;57.90
19588;DHT22;9940;47.252;8.696;2023-05-17T15:01:56;16.10;57.90
19588;DHT22;9940;47.252;8.696;2023-05-17T15:06:50;16.10;57.60
19588;DHT22;9940;47.252;8.696;2023-05-17T15:09:17;16.10;58.00
19588;DHT22;9940;47.252;8.696;2023-05-17T15:11:43;16.00;58.00
19588;DHT22;9940;47.252;8.696;2023-05-17T15:14:13;16.00;58.10
19588;DHT22;9940;47.252;8.696;2023-05-17T15:16:47;15.90;58.10
19588;DHT22;9940;47.252;8.696;2023-05-17T15:19:13;15.90;58.20
19588;DHT22;9940;47.252;8.696;2023-05-17T15:21:45;15.80;58.30
19588;DHT22;9940;47.252;8.696;2023-05-17T15:24:10;15.80;58.40
19588;DHT22;9940;47.252;8.696;2023-05-17T15:26:37;15.70;58.30
19588;DHT22;9940;47.252;8.696;2023-05-17T15:29:02;15.70;58.40
19588;DHT22;9940;47.252;8.696;2023-05-17T15:31:28;15.60;58.40
19588;DHT22;9940;47.252;8.696;2023-05-17T15:33:55;15.60;58.60
19588;DHT22;9940;47.252;8.696;2023-05-17T15:36:23;15.50;58.70
19588;DHT22;9940;47.252;8.696;2023-05-17T15:38:48;15.40;58.80
19588;DHT22;9940;47.252;8.696;2023-05-17T15:41:15;15.40;59.00
19588;DHT22;9940;47.252;8.696;2023-05-17T15:43:42;15.30;59.10
19588;DHT22;9940;47.252;8.696;2023-05-17T15:46:08;15.20;59.20
19588;DHT22;9940;47.252;8.696;2023-05-17T15:48:33;15.20;59.30
19588;DHT22;9940;47.252;8.696;2023-05-17T15:51:02;15.10;59.40
19588;DHT22;9940;47.252;8.696;2023-05-17T15:53:28;15.10;59.60
19588;DHT22;9940;47.252;8.696;2023-05-17T15:55:56;15.10;59.60
19588;DHT22;9940;47.252;8.696;2023-05-17T15:58:25;15.00;59.60
19588;DHT22;9940;47.252;8.696;2023-05-17T16:00:58;15.00;59.70
19588;DHT22;9940;47.252;8.696;2023-05-17T16:03:24;15.00;59.80
19588;DHT22;9940;47.252;8.696;2023-05-17T16:05:52;15.00;59.90
19588;DHT22;9940;47.252;8.696;2023-05-17T16:08:20;15.00;60.00
19588;DHT22;9940;47.252;8.696;2023-05-17T16:10:46;15.00;60.00
19588;DHT22;9940;47.252;8.696;2023-05-17T16:13:11;15.00;60.10
19588;DHT22;9940;47.252;8.696;2023-05-17T16:15:37;14.90;60.20
19588;DHT22;9940;47.252;8.696;2023-05-17T16:18:05;14.90;60.20
19588;DHT22;9940;47.252;8.696;2023-05-17T16:20:31;15.00;60.30
19588;DHT22;9940;47.252;8.696;2023-05-17T16:22:56;15.00;60.20